Time;durP1;ratioP1;P1;durP2;ratioP2;P2;SDS_P1;SDS_P2;PMS_P1;PMS_P2;Temp;Humidity;BMP_temperature;BMP_pressure;BME280_temperature;BME280_humidity;BME280_pressure;Samples;Min_cycle;Max_cycle;Signal;HPM_P1;HPM_P2
2021/12/06 00:01:44;;;;;;;41.65;26.92;;;;;;;;;;5027485;28;20044;-85
2021/12/06 00:04:15;;;;;;;47.83;27.87;;;;;;;;;;5037804;28;20127;-86
2021/12/06 00:06:42;;;;;;;42.75;27.05;;;;;;;;;;5023508;28;20507;-86
2021/12/06 00:09:10;;;;;;;49.60;28.88;;;;;;;;;;5041204;28;20144;-86
2021/12/06 00:11:36;;;;;;;47.00;28.23;;;;;;;;;;5027115;28;20040;-86
2021/12/06 00:14:03;;;;;;;46.80;28.42;;;;;;;;;;5024034;28;20048;-86
2021/12/06 00:16:29;;;;;;;48.22;29.05;;;;;;;;;;5027230;28;20051;-86
2021/12/06 00:18:55;;;;;;;48.30;29.00;;;;;;;;;;5041768;28;20465;-86
2021/12/06 00:21:21;;;;;;;48.33;29.58;;;;;;;;;;5039482;28;20040;-86
2021/12/06 00:23:47;;;;;;;47.72;28.40;;;;;;;;;;5042349;28;20039;-86
2021/12/06 00:26:13;;;;;;;50.67;29.20;;;;;;;;;;5037477;28;20132;-86
2021/12/06 00:28:41;;;;;;;44.28;27.73;;;;;;;;;;5043284;28;20044;-87
2021/12/06 00:31:07;;;;;;;52.80;29.58;;;;;;;;;;5063510;27;24459;-86
2021/12/06 00:33:33;;;;;;;48.67;29.90;;;;;;;;;;5039799;27;20492;-86
2021/12/06 00:36:04;;;;;;;48.65;28.55;;;;;;;;;;5034610;28;20051;-87
2021/12/06 00:38:34;;;;;;;47.63;28.75;;;;;;;;;;5037169;28;20070;-86
2021/12/06 00:41:00;;;;;;;50.97;29.90;;;;;;;;;;5055085;28;20093;-86
2021/12/06 00:43:26;;;;;;;47.22;29.40;;;;;;;;;;5076656;27;20130;-86
2021/12/06 00:45:52;;;;;;;49.60;29.45;;;;;;;;;;5047885;27;20047;-86
2021/12/06 00:48:18;;;;;;;48.83;29.58;;;;;;;;;;5055540;27;22485;-86
2021/12/06 00:50:44;;;;;;;49.45;29.55;;;;;;;;;;5085753;27;20385;-86
2021/12/06 00:53:11;;;;;;;46.40;28.42;;;;;;;;;;5039022;27;20178;-86
2021/12/06 00:55:37;;;;;;;51.55;30.50;;;;;;;;;;5056584;28;20554;-86
2021/12/06 00:58:03;;;;;;;49.88;29.50;;;;;;;;;;5037047;27;20171;-86
2021/12/06 01:00:35;;;;;;;48.85;29.35;;;;;;;;;;5055062;28;20107;-86
2021/12/06 01:03:01;;;;;;;47.15;28.25;;;;;;;;;;5067466;27;20046;-86
2021/12/06 01:05:27;;;;;;;47.60;28.98;;;;;;;;;;5057334;28;20151;-86
2021/12/06 01:07:56;;;;;;;49.10;29.83;;;;;;;;;;5072176;28;20050;-86
2021/12/06 01:10:23;;;;;;;49.47;29.13;;;;;;;;;;5068358;27;20435;-86
2021/12/06 01:12:49;;;;;;;49.13;29.45;;;;;;;;;;5094607;27;20090;-86
2021/12/06 01:15:15;;;;;;;57.13;31.20;;;;;;;;;;5072856;27;20160;-86
2021/12/06 01:17:41;;;;;;;51.72;30.15;;;;;;;;;;5074986;27;20070;-86
2021/12/06 01:20:09;;;;;;;56.05;30.70;;;;;;;;;;5050306;28;20114;-87
2021/12/06 01:22:47;;;;;;;50.60;29.93;;;;;;;;;;5069376;28;20040;-86
2021/12/06 01:25:29;;;;;;;49.75;29.67;;;;;;;;;;5064809;27;20105;-86
2021/12/06 01:31:33;;;;;;;49.15;29.80;;;;;;;;;;5073010;27;21229;-86
2021/12/06 01:41:12;;;;;;;47.90;27.80;;;;;;;;;;5053643;28;20051;-86
2021/12/06 01:43:38;;;;;;;51.97;29.38;;;;;;;;;;5053361;27;20054;-86
2021/12/06 01:46:04;;;;;;;55.17;29.58;;;;;;;;;;5048775;27;20035;-87
2021/12/06 01:48:30;;;;;;;49.13;28.50;;;;;;;;;;5054948;27;20055;-86
2021/12/06 01:50:56;;;;;;;48.58;28.50;;;;;;;;;;5053185;27;20047;-86
2021/12/06 01:53:22;;;;;;;49.88;29.20;;;;;;;;;;5073593;27;20458;-86
2021/12/06 01:55:48;;;;;;;52.67;30.10;;;;;;;;;;5053534;27;20353;-86
2021/12/06 01:58:14;;;;;;;58.88;31.58;;;;;;;;;;5069325;27;20495;-86
2021/12/06 02:00:42;;;;;;;55.75;29.77;;;;;;;;;;5052896;28;20048;-86
2021/12/06 02:03:08;;;;;;;51.05;30.27;;;;;;;;;;5027428;28;20039;-86
2021/12/06 02:05:35;;;;;;;56.67;31.05;;;;;;;;;;5056468;27;20572;-86
2021/12/06 02:08:01;;;;;;;52.72;29.75;;;;;;;;;;5052384;28;20801;-86
2021/12/06 02:10:28;;;;;;;58.67;31.27;;;;;;;;;;5038264;28;20135;-86
2021/12/06 02:12:55;;;;;;;54.38;31.20;;;;;;;;;;5036539;28;20074;-86
2021/12/06 02:17:56;;;;;;;61.55;32.92;;;;;;;;;;5054989;28;20055;-86
2021/12/06 02:20:26;;;;;;;61.30;33.40;;;;;;;;;;5056885;28;20043;-86
2021/12/06 02:22:53;;;;;;;59.80;32.08;;;;;;;;;;5056426;27;20058;-86
2021/12/06 02:25:19;;;;;;;62.72;32.90;;;;;;;;;;5066190;28;20123;-86
2021/12/06 02:27:46;;;;;;;58.30;31.13;;;;;;;;;;5073131;28;20050;-86
2021/12/06 02:30:12;;;;;;;61.88;33.88;;;;;;;;;;5082769;27;20059;-86
2021/12/06 02:32:38;;;;;;;60.00;32.78;;;;;;;;;;5034570;28;20342;-86
2021/12/06 02:35:05;;;;;;;56.28;31.60;;;;;;;;;;5050574;28;21052;-86
2021/12/06 02:37:32;;;;;;;55.95;31.40;;;;;;;;;;5055249;28;20047;-86
2021/12/06 02:39:58;;;;;;;61.55;32.15;;;;;;;;;;5035511;28;20119;-86
2021/12/06 02:42:25;;;;;;;64.25;31.80;;;;;;;;;;5071895;28;20046;-86
2021/12/06 02:44:51;;;;;;;62.70;31.38;;;;;;;;;;5039073;28;22306;-86
2021/12/06 02:47:17;;;;;;;61.33;31.98;;;;;;;;;;5052102;28;20491;-86
2021/12/06 02:49:43;;;;;;;61.15;32.05;;;;;;;;;;5037882;28;20097;-86
2021/12/06 02:52:11;;;;;;;62.70;31.25;;;;;;;;;;5035717;28;20073;-86
2021/12/06 02:54:37;;;;;;;65.35;32.83;;;;;;;;;;5036419;28;20139;-86
2021/12/06 02:59:39;;;;;;;67.97;35.30;;;;;;;;;;5055351;28;20511;-86
2021/12/06 03:02:07;;;;;;;68.40;34.67;;;;;;;;;;5050749;28;20043;-86
2021/12/06 03:04:33;;;;;;;67.63;34.58;;;;;;;;;;5055350;28;20047;-86
2021/12/06 03:07:00;;;;;;;66.78;35.40;;;;;;;;;;5033182;28;20046;-86
2021/12/06 03:09:27;;;;;;;66.80;34.47;;;;;;;;;;5071757;28;20370;-86
2021/12/06 03:11:58;;;;;;;69.28;34.53;;;;;;;;;;5038039;28;20031;-86
2021/12/06 03:14:29;;;;;;;78.60;36.60;;;;;;;;;;5069855;28;20590;-86
2021/12/06 03:16:55;;;;;;;78.10;37.33;;;;;;;;;;5041976;28;20039;-86
2021/12/06 03:19:22;;;;;;;72.53;35.85;;;;;;;;;;5037856;27;20200;-86
2021/12/06 03:21:48;;;;;;;74.35;35.67;;;;;;;;;;5065273;27;20187;-86
2021/12/06 03:24:14;;;;;;;70.80;36.53;;;;;;;;;;5036727;28;20055;-86
2021/12/06 03:26:40;;;;;;;72.80;37.25;;;;;;;;;;5041008;27;20039;-85
2021/12/06 03:29:07;;;;;;;66.07;34.15;;;;;;;;;;5036001;27;20138;-85
2021/12/06 03:31:33;;;;;;;69.47;35.58;;;;;;;;;;5037840;27;20079;-85
2021/12/06 03:34:00;;;;;;;72.70;36.97;;;;;;;;;;5055272;27;20540;-86
2021/12/06 03:36:26;;;;;;;74.28;35.97;;;;;;;;;;5041713;27;20049;-85
2021/12/06 03:38:52;;;;;;;72.20;36.13;;;;;;;;;;5059445;27;20043;-86
2021/12/06 03:41:19;;;;;;;68.72;34.95;;;;;;;;;;5068517;28;20036;-86
2021/12/06 03:43:45;;;;;;;68.53;35.10;;;;;;;;;;5060467;27;20050;-85
2021/12/06 03:46:12;;;;;;;70.45;35.65;;;;;;;;;;5055849;28;20054;-86
2021/12/06 03:48:38;;;;;;;73.78;37.10;;;;;;;;;;5075122;27;20113;-86
2021/12/06 03:51:04;;;;;;;74.20;36.03;;;;;;;;;;5035461;28;20044;-86
2021/12/06 03:53:30;;;;;;;73.97;37.30;;;;;;;;;;5060803;27;20039;-86
2021/12/06 03:55:56;;;;;;;72.38;36.42;;;;;;;;;;5063253;27;20138;-86
2021/12/06 03:58:23;;;;;;;72.13;37.60;;;;;;;;;;5056080;28;20063;-85
2021/12/06 04:00:49;;;;;;;72.55;36.22;;;;;;;;;;5044898;27;20126;-86
2021/12/06 04:03:15;;;;;;;75.30;37.55;;;;;;;;;;5054122;27;20040;-86
2021/12/06 04:05:41;;;;;;;72.90;35.92;;;;;;;;;;5039833;28;20067;-86
2021/12/06 04:08:07;;;;;;;80.07;37.83;;;;;;;;;;5055217;27;20048;-86
2021/12/06 04:10:33;;;;;;;73.35;36.75;;;;;;;;;;5057620;27;20036;-85
2021/12/06 04:12:59;;;;;;;80.57;38.80;;;;;;;;;;5040664;28;20123;-85
2021/12/06 04:15:29;;;;;;;78.57;36.85;;;;;;;;;;5059420;28;20044;-86
2021/12/06 04:17:55;;;;;;;75.85;36.38;;;;;;;;;;5073816;28;20386;-86
2021/12/06 04:20:21;;;;;;;75.72;37.65;;;;;;;;;;5035067;28;20511;-86
2021/12/06 04:22:47;;;;;;;84.15;37.60;;;;;;;;;;5038957;28;20043;-86
2021/12/06 04:25:16;;;;;;;78.80;37.83;;;;;;;;;;5039091;28;20142;-86
2021/12/06 04:27:42;;;;;;;79.03;38.67;;;;;;;;;;5058103;28;20040;-86
2021/12/06 04:30:08;;;;;;;79.90;37.97;;;;;;;;;;5055461;28;20126;-85
2021/12/06 04:32:34;;;;;;;75.13;37.20;;;;;;;;;;5055328;28;20040;-85
2021/12/06 04:35:00;;;;;;;82.13;40.10;;;;;;;;;;5069280;28;20093;-86
2021/12/06 04:37:29;;;;;;;78.75;38.80;;;;;;;;;;5061605;27;20083;-84
2021/12/06 04:39:55;;;;;;;74.18;36.38;;;;;;;;;;5054646;27;20055;-85
2021/12/06 04:42:22;;;;;;;75.88;37.40;;;;;;;;;;5048554;28;20104;-85
2021/12/06 04:44:48;;;;;;;71.20;35.83;;;;;;;;;;5042211;27;20050;-87
2021/12/06 04:47:14;;;;;;;79.55;35.47;;;;;;;;;;5036825;27;20051;-85
2021/12/06 04:49:40;;;;;;;67.82;33.97;;;;;;;;;;5058242;27;20135;-86
2021/12/06 04:52:07;;;;;;;69.20;35.05;;;;;;;;;;5034887;28;20040;-87
2021/12/06 04:54:34;;;;;;;66.20;33.85;;;;;;;;;;5038312;28;20162;-86
2021/12/06 04:57:05;;;;;;;68.05;32.85;;;;;;;;;;5072756;27;20492;-85
2021/12/06 04:59:31;;;;;;;67.45;33.78;;;;;;;;;;5041834;28;20138;-86
2021/12/06 05:01:58;;;;;;;66.45;33.25;;;;;;;;;;5048771;28;20054;-85
2021/12/06 05:04:26;;;;;;;63.92;31.85;;;;;;;;;;5040970;28;20040;-87
2021/12/06 05:06:53;;;;;;;70.65;34.22;;;;;;;;;;5041204;27;20044;-87
2021/12/06 05:09:22;;;;;;;67.60;33.13;;;;;;;;;;5085002;27;20134;-86
2021/12/06 05:11:48;;;;;;;79.38;36.53;;;;;;;;;;5057496;28;20576;-86
2021/12/06 05:14:14;;;;;;;68.78;33.63;;;;;;;;;;5048925;28;20067;-85
2021/12/06 05:16:40;;;;;;;68.43;33.55;;;;;;;;;;5044480;28;20126;-86
2021/12/06 05:19:06;;;;;;;72.50;36.40;;;;;;;;;;5036720;28;20047;-86
2021/12/06 05:21:33;;;;;;;76.03;36.15;;;;;;;;;;5057328;28;20079;-86
2021/12/06 05:23:59;;;;;;;71.95;34.30;;;;;;;;;;5049561;28;20043;-85
2021/12/06 05:26:25;;;;;;;79.10;34.90;;;;;;;;;;5055622;27;20047;-85
2021/12/06 05:28:56;;;;;;;71.07;33.83;;;;;;;;;;5071081;27;20497;-87
2021/12/06 05:31:23;;;;;;;75.47;34.70;;;;;;;;;;5049325;27;20473;-86
2021/12/06 05:33:56;;;;;;;81.85;35.17;;;;;;;;;;5056344;28;20036;-85
2021/12/06 05:36:22;;;;;;;74.95;34.63;;;;;;;;;;5071005;28;20046;-85
2021/12/06 05:38:52;;;;;;;85.32;36.75;;;;;;;;;;5079266;28;20385;-85
2021/12/06 05:41:18;;;;;;;83.53;37.75;;;;;;;;;;5053095;27;20160;-85
2021/12/06 05:43:44;;;;;;;74.63;33.97;;;;;;;;;;5056417;28;20529;-85
2021/12/06 05:46:10;;;;;;;86.35;36.90;;;;;;;;;;5052486;27;20397;-86
2021/12/06 05:48:36;;;;;;;78.88;36.45;;;;;;;;;;5057545;27;20092;-85
2021/12/06 05:51:02;;;;;;;86.15;38.50;;;;;;;;;;5053015;27;20044;-85
2021/12/06 05:53:28;;;;;;;92.72;38.35;;;;;;;;;;5054869;28;20059;-85
2021/12/06 05:55:54;;;;;;;80.07;36.42;;;;;;;;;;5039608;28;20054;-85
2021/12/06 05:58:22;;;;;;;79.20;35.13;;;;;;;;;;5036894;28;20055;-86
2021/12/06 06:00:48;;;;;;;71.80;35.10;;;;;;;;;;5056958;27;20584;-86
2021/12/06 06:03:15;;;;;;;77.47;34.88;;;;;;;;;;5038505;27;20129;-86
2021/12/06 06:05:41;;;;;;;76.60;33.30;;;;;;;;;;5038535;27;20074;-86
2021/12/06 06:08:08;;;;;;;71.72;33.13;;;;;;;;;;5050024;27;20042;-85
2021/12/06 06:10:34;;;;;;;68.57;31.58;;;;;;;;;;5041799;28;20455;-85
2021/12/06 06:13:00;;;;;;;72.78;32.67;;;;;;;;;;5069917;28;20118;-87
2021/12/06 06:15:28;;;;;;;66.97;31.52;;;;;;;;;;5052577;28;20043;-87
2021/12/06 06:17:54;;;;;;;69.15;31.42;;;;;;;;;;5055423;28;20126;-84
2021/12/06 06:20:22;;;;;;;74.80;32.78;;;;;;;;;;5054877;28;20046;-86
2021/12/06 06:22:48;;;;;;;68.47;32.10;;;;;;;;;;5072276;28;20051;-86
2021/12/06 06:25:15;;;;;;;75.63;33.15;;;;;;;;;;5049971;28;20085;-86
2021/12/06 06:27:45;;;;;;;80.18;35.22;;;;;;;;;;5059167;27;20043;-86
2021/12/06 06:30:11;;;;;;;88.85;35.13;;;;;;;;;;5053982;28;20090;-86
2021/12/06 06:32:37;;;;;;;79.57;35.85;;;;;;;;;;5056096;28;20338;-85
2021/12/06 06:35:04;;;;;;;72.20;32.70;;;;;;;;;;5051560;28;20132;-85
2021/12/06 06:37:30;;;;;;;78.07;34.97;;;;;;;;;;5039676;28;20039;-86
2021/12/06 06:39:56;;;;;;;76.22;34.35;;;;;;;;;;5040118;27;21498;-85
2021/12/06 06:42:23;;;;;;;80.32;33.95;;;;;;;;;;5058490;28;20100;-85
2021/12/06 06:44:52;;;;;;;82.32;35.17;;;;;;;;;;5105466;27;20044;-86
2021/12/06 06:47:18;;;;;;;74.25;32.28;;;;;;;;;;5035457;28;20044;-85
2021/12/06 06:49:44;;;;;;;72.93;32.63;;;;;;;;;;5041964;28;20048;-86
2021/12/06 06:52:10;;;;;;;81.00;34.10;;;;;;;;;;5033488;28;20138;-86
2021/12/06 06:54:36;;;;;;;75.07;33.97;;;;;;;;;;5055328;28;20044;-86
2021/12/06 06:57:02;;;;;;;75.25;31.70;;;;;;;;;;5065374;28;20043;-85
2021/12/06 06:59:28;;;;;;;77.80;34.53;;;;;;;;;;5054081;28;20114;-86
2021/12/06 07:01:55;;;;;;;80.18;33.65;;;;;;;;;;5051842;28;20074;-86
2021/12/06 07:04:21;;;;;;;73.25;32.97;;;;;;;;;;5034771;28;20131;-84
2021/12/06 07:06:47;;;;;;;70.80;30.65;;;;;;;;;;5035381;28;20403;-87
2021/12/06 07:09:13;;;;;;;73.38;31.92;;;;;;;;;;5030188;28;20039;-87
2021/12/06 07:11:44;;;;;;;68.05;31.55;;;;;;;;;;5065431;28;20407;-86
2021/12/06 07:14:10;;;;;;;71.40;32.30;;;;;;;;;;5049541;28;20425;-87
2021/12/06 07:16:36;;;;;;;72.95;31.08;;;;;;;;;;5056471;28;20047;-87
2021/12/06 07:19:02;;;;;;;66.82;29.95;;;;;;;;;;5031760;28;20071;-87
2021/12/06 07:21:28;;;;;;;66.32;29.58;;;;;;;;;;5069601;28;20549;-86
2021/12/06 07:23:54;;;;;;;62.35;28.60;;;;;;;;;;5069995;28;20035;-87
2021/12/06 07:26:20;;;;;;;64.13;29.77;;;;;;;;;;5057516;28;20043;-86
2021/12/06 07:28:47;;;;;;;62.83;29.98;;;;;;;;;;5060371;28;20041;-86
2021/12/06 07:31:14;;;;;;;60.78;27.80;;;;;;;;;;5045494;28;20907;-86
2021/12/06 07:33:41;;;;;;;64.60;29.13;;;;;;;;;;5072723;28;20150;-86
2021/12/06 07:36:10;;;;;;;61.63;29.30;;;;;;;;;;5065864;28;20047;-90
2021/12/06 07:38:37;;;;;;;60.75;28.55;;;;;;;;;;5055989;28;21215;-85
2021/12/06 07:41:05;;;;;;;58.83;28.87;;;;;;;;;;5067788;28;20055;-89
2021/12/06 07:43:31;;;;;;;63.22;29.55;;;;;;;;;;5037610;28;20047;-82
2021/12/06 07:45:57;;;;;;;57.50;27.35;;;;;;;;;;5071727;28;20051;-89
2021/12/06 07:48:23;;;;;;;60.40;28.40;;;;;;;;;;5058394;28;20046;-86
2021/12/06 07:50:49;;;;;;;55.38;27.52;;;;;;;;;;5035634;28;20035;-84
2021/12/06 07:53:16;;;;;;;61.50;27.85;;;;;;;;;;5064095;28;22541;-85
2021/12/06 07:55:42;;;;;;;61.53;28.50;;;;;;;;;;5093006;28;20059;-86
2021/12/06 07:58:08;;;;;;;62.13;27.90;;;;;;;;;;5053099;28;20047;-87
2021/12/06 08:00:35;;;;;;;52.88;25.75;;;;;;;;;;5039833;28;20047;-85
2021/12/06 08:03:01;;;;;;;52.30;25.95;;;;;;;;;;5039208;28;20050;-88
2021/12/06 08:05:30;;;;;;;53.85;26.35;;;;;;;;;;5065420;28;20096;-86
2021/12/06 08:08:02;;;;;;;56.47;26.83;;;;;;;;;;5080295;28;20092;-86
2021/12/06 08:10:29;;;;;;;54.95;26.13;;;;;;;;;;5078922;28;20497;-85
2021/12/06 08:12:55;;;;;;;57.03;26.95;;;;;;;;;;5051895;28;20515;-86
2021/12/06 08:15:21;;;;;;;60.33;27.98;;;;;;;;;;5075833;28;20056;-86
2021/12/06 08:17:47;;;;;;;55.03;26.55;;;;;;;;;;5049151;28;20102;-86
2021/12/06 08:20:13;;;;;;;58.95;28.05;;;;;;;;;;5061469;28;20161;-86
2021/12/06 08:22:39;;;;;;;58.80;28.02;;;;;;;;;;5046164;28;20060;-85
2021/12/06 08:25:05;;;;;;;52.53;25.48;;;;;;;;;;5063652;28;20393;-86
2021/12/06 08:27:31;;;;;;;52.88;26.98;;;;;;;;;;5051309;28;20401;-85
2021/12/06 08:29:58;;;;;;;54.15;26.38;;;;;;;;;;5049876;28;20046;-86
2021/12/06 08:32:24;;;;;;;55.35;26.55;;;;;;;;;;5082409;28;20393;-86
2021/12/06 08:34:50;;;;;;;49.10;25.77;;;;;;;;;;5082724;28;20486;-86
2021/12/06 08:37:16;;;;;;;52.70;25.83;;;;;;;;;;5059938;28;20476;-86
2021/12/06 08:39:42;;;;;;;55.78;26.48;;;;;;;;;;5065708;28;20080;-86
2021/12/06 08:42:08;;;;;;;52.45;26.77;;;;;;;;;;5047920;28;20050;-85
2021/12/06 08:44:34;;;;;;;54.42;26.02;;;;;;;;;;5046893;28;20520;-86
2021/12/06 08:47:02;;;;;;;49.83;25.13;;;;;;;;;;5056046;27;20858;-86
2021/12/06 08:49:28;;;;;;;46.83;25.83;;;;;;;;;;5077013;28;20039;-86
2021/12/06 08:51:56;;;;;;;46.90;24.17;;;;;;;;;;5044871;27;20044;-87
2021/12/06 08:54:26;;;;;;;47.87;25.07;;;;;;;;;;5040748;28;20043;-86
2021/12/06 08:56:52;;;;;;;47.00;24.17;;;;;;;;;;5063693;27;20572;-86
2021/12/06 08:59:18;;;;;;;44.97;23.75;;;;;;;;;;5051797;28;20500;-85
2021/12/06 09:01:44;;;;;;;49.45;23.95;;;;;;;;;;5059278;27;20388;-86
2021/12/06 09:04:12;;;;;;;46.72;24.38;;;;;;;;;;5041922;28;20040;-85
2021/12/06 09:06:39;;;;;;;46.15;23.80;;;;;;;;;;5042389;27;20083;-86
2021/12/06 09:09:07;;;;;;;46.22;23.58;;;;;;;;;;5052306;28;20236;-86
2021/12/06 09:11:33;;;;;;;;;;;;;;;;;;5060098;28;20040;-87
2021/12/06 09:13:59;;;;;;;43.88;23.65;;;;;;;;;;5059670;27;20356;-86
2021/12/06 09:16:26;;;;;;;45.08;23.73;;;;;;;;;;5043157;27;20063;-87
2021/12/06 09:18:53;;;;;;;47.88;24.55;;;;;;;;;;5041354;28;20067;-86
2021/12/06 09:21:21;;;;;;;48.55;24.45;;;;;;;;;;5072596;28;20096;-85
2021/12/06 09:23:47;;;;;;;42.00;23.13;;;;;;;;;;5099206;27;20582;-86
2021/12/06 09:26:13;;;;;;;42.75;22.83;;;;;;;;;;5049807;27;20047;-86
2021/12/06 09:28:39;;;;;;;42.45;22.25;;;;;;;;;;5079254;28;20085;-86
2021/12/06 09:31:05;;;;;;;49.35;23.63;;;;;;;;;;5079199;28;20077;-85
2021/12/06 09:33:32;;;;;;;42.20;23.27;;;;;;;;;;5062624;28;20063;-86
2021/12/06 09:36:01;;;;;;;48.78;24.77;;;;;;;;;;5059174;28;20040;-87
2021/12/06 09:38:32;;;;;;;48.63;24.63;;;;;;;;;;5080240;28;20398;-87
2021/12/06 09:40:59;;;;;;;49.08;24.65;;;;;;;;;;5078617;28;20054;-87
2021/12/06 09:43:25;;;;;;;48.97;24.75;;;;;;;;;;5082131;28;20056;-86
2021/12/06 09:45:51;;;;;;;42.45;23.58;;;;;;;;;;5060730;28;20088;-87
2021/12/06 09:48:17;;;;;;;51.40;24.52;;;;;;;;;;5074630;28;23200;-86
2021/12/06 09:50:44;;;;;;;53.22;24.73;;;;;;;;;;5064092;28;20450;-86
2021/12/06 09:53:14;;;;;;;50.95;24.83;;;;;;;;;;5077433;28;20039;-87
2021/12/06 09:55:42;;;;;;;53.85;27.35;;;;;;;;;;5064930;28;20065;-87
2021/12/06 09:58:08;;;;;;;51.88;25.45;;;;;;;;;;5078589;28;20054;-87
2021/12/06 10:00:35;;;;;;;54.67;26.85;;;;;;;;;;5078416;28;20039;-86
2021/12/06 10:03:01;;;;;;;54.85;26.73;;;;;;;;;;5059321;28;20070;-87
2021/12/06 10:05:29;;;;;;;56.25;28.38;;;;;;;;;;5062737;28;20066;-87
2021/12/06 10:07:55;;;;;;;54.47;28.73;;;;;;;;;;5077026;28;20040;-86
2021/12/06 10:10:22;;;;;;;59.75;29.98;;;;;;;;;;5068368;28;20043;-87
2021/12/06 10:12:52;;;;;;;63.30;32.30;;;;;;;;;;5046222;28;20093;-87
2021/12/06 10:15:18;;;;;;;64.75;33.00;;;;;;;;;;5046505;28;20047;-87
2021/12/06 10:17:44;;;;;;;61.30;31.08;;;;;;;;;;5063262;28;20047;-87
2021/12/06 10:20:11;;;;;;;62.60;30.95;;;;;;;;;;5077294;28;20058;-87
2021/12/06 10:22:37;;;;;;;64.28;31.30;;;;;;;;;;5082579;28;20055;-87
2021/12/06 10:25:03;;;;;;;55.83;29.10;;;;;;;;;;5041443;28;20503;-87
2021/12/06 10:27:29;;;;;;;52.65;27.83;;;;;;;;;;5073477;28;20559;-86
2021/12/06 10:30:00;;;;;;;54.35;28.33;;;;;;;;;;5058771;28;20055;-86
2021/12/06 10:32:27;;;;;;;50.13;26.85;;;;;;;;;;5063298;28;20818;-88
2021/12/06 10:34:54;;;;;;;50.42;25.80;;;;;;;;;;5047234;28;20817;-88
2021/12/06 10:37:31;;;;;;;44.67;22.98;;;;;;;;;;5036620;28;20056;-87
2021/12/06 10:39:59;;;;;;;39.83;21.13;;;;;;;;;;5039219;28;20119;-86
2021/12/06 10:42:25;;;;;;;;;;;;;;;;;;5043994;28;20044;-86
2021/12/06 10:44:51;;;;;;;40.95;22.17;;;;;;;;;;5057669;28;19971;-87
2021/12/06 10:47:18;;;;;;;38.25;21.13;;;;;;;;;;5077052;28;20047;-87
2021/12/06 10:49:47;;;;;;;34.42;20.80;;;;;;;;;;5061163;28;20046;-87
2021/12/06 10:52:13;;;;;;;39.53;21.10;;;;;;;;;;5069256;28;20362;-87
2021/12/06 10:54:40;;;;;;;38.30;20.83;;;;;;;;;;5040500;28;20036;-87
2021/12/06 10:57:08;;;;;;;37.55;20.23;;;;;;;;;;5036182;28;20050;-86
2021/12/06 10:59:36;;;;;;;33.95;20.15;;;;;;;;;;5043242;28;20230;-86
2021/12/06 11:02:09;;;;;;;33.22;19.40;;;;;;;;;;5053043;28;20079;-87
2021/12/06 11:04:36;;;;;;;35.58;20.80;;;;;;;;;;5059324;28;20055;-86
2021/12/06 11:07:05;;;;;;;35.90;19.33;;;;;;;;;;5050943;28;20078;-86
2021/12/06 11:09:32;;;;;;;30.20;18.65;;;;;;;;;;5056310;28;20135;-86
2021/12/06 11:11:59;;;;;;;33.25;18.42;;;;;;;;;;5055632;28;20040;-87
2021/12/06 11:14:30;;;;;;;35.85;19.17;;;;;;;;;;5039006;28;20048;-87
2021/12/06 11:16:57;;;;;;;33.30;18.77;;;;;;;;;;5054977;28;20097;-86
2021/12/06 11:19:24;;;;;;;31.85;18.40;;;;;;;;;;5078211;28;20063;-87
2021/12/06 11:21:54;;;;;;;32.05;18.42;;;;;;;;;;5081633;28;20051;-87
2021/12/06 11:24:23;;;;;;;31.38;19.42;;;;;;;;;;5057821;28;20044;-87
2021/12/06 11:26:51;;;;;;;32.05;19.58;;;;;;;;;;5058460;28;20131;-86
2021/12/06 11:29:19;;;;;;;31.48;19.63;;;;;;;;;;5057261;28;20811;-86
2021/12/06 11:31:49;;;;;;;33.58;19.50;;;;;;;;;;5042760;28;20052;-86
2021/12/06 11:34:15;;;;;;;35.17;20.45;;;;;;;;;;5037354;27;20040;-85
2021/12/06 11:36:42;;;;;;;36.00;21.20;;;;;;;;;;5065533;28;20109;-86
2021/12/06 11:39:13;;;;;;;32.97;20.35;;;;;;;;;;5064783;27;20046;-86
2021/12/06 11:41:42;;;;;;;34.17;20.85;;;;;;;;;;5045204;27;20134;-85
2021/12/06 11:44:13;;;;;;;32.90;20.30;;;;;;;;;;5038028;28;20063;-85
2021/12/06 11:46:39;;;;;;;33.60;21.38;;;;;;;;;;5041184;28;20039;-85
2021/12/06 11:49:14;;;;;;;38.38;20.90;;;;;;;;;;5076073;27;20043;-85
2021/12/06 11:51:40;;;;;;;40.30;21.70;;;;;;;;;;5042328;28;20476;-86
2021/12/06 11:54:07;;;;;;;40.60;22.70;;;;;;;;;;5053630;28;20039;-86
2021/12/06 11:56:33;;;;;;;37.78;23.70;;;;;;;;;;5043790;27;20138;-86
2021/12/06 11:59:01;;;;;;;39.78;23.83;;;;;;;;;;5037920;27;20040;-85
2021/12/06 12:01:55;;;;;;;38.38;22.75;;;;;;;;;;5046850;27;20044;-86
2021/12/06 12:04:25;;;;;;;43.13;24.10;;;;;;;;;;5056635;27;20804;-86
2021/12/06 12:07:01;;;;;;;43.33;24.30;;;;;;;;;;5044531;27;20603;-86
2021/12/06 12:09:31;;;;;;;43.83;25.38;;;;;;;;;;5070822;27;20457;-86
2021/12/06 12:12:15;;;;;;;46.08;26.10;;;;;;;;;;5069494;28;20123;-86
2021/12/06 12:14:42;;;;;;;42.50;25.48;;;;;;;;;;5075471;28;20054;-84
2021/12/06 12:17:12;;;;;;;42.80;25.08;;;;;;;;;;5057540;27;20048;-86
2021/12/06 12:19:39;;;;;;;42.40;25.73;;;;;;;;;;5056663;28;20055;-86
2021/12/06 12:22:06;;;;;;;40.33;24.02;;;;;;;;;;5074337;28;20047;-85
2021/12/06 12:24:33;;;;;;;41.72;22.83;;;;;;;;;;5063710;28;20578;-85
2021/12/06 12:27:06;;;;;;;41.33;22.08;;;;;;;;;;5044021;28;20036;-85
2021/12/06 12:29:32;;;;;;;37.63;21.05;;;;;;;;;;5098873;28;20044;-84
2021/12/06 12:32:02;;;;;;;36.85;21.10;;;;;;;;;;5068398;28;20052;-85
2021/12/06 12:34:28;;;;;;;37.40;20.65;;;;;;;;;;5044271;28;20126;-85
2021/12/06 12:36:54;;;;;;;36.05;20.00;;;;;;;;;;5046871;28;20959;-85
2021/12/06 12:39:21;;;;;;;35.80;20.73;;;;;;;;;;5098944;27;20048;-85
2021/12/06 12:41:57;;;;;;;36.53;20.55;;;;;;;;;;5063444;28;20185;-85
2021/12/06 12:44:23;;;;;;;40.20;21.55;;;;;;;;;;5065549;28;20560;-85
2021/12/06 12:46:50;;;;;;;38.03;21.75;;;;;;;;;;5096735;28;20055;-85
2021/12/06 12:49:17;;;;;;;43.58;23.38;;;;;;;;;;5059349;28;20395;-85
2021/12/06 12:51:47;;;;;;;42.72;23.55;;;;;;;;;;5050854;28;20082;-85
2021/12/06 12:54:27;;;;;;;45.70;23.15;;;;;;;;;;5054962;27;20043;-84
2021/12/06 12:56:54;;;;;;;41.90;23.45;;;;;;;;;;5079141;28;20056;-85
2021/12/06 12:59:33;;;;;;;47.47;25.17;;;;;;;;;;5061810;28;20043;-86
2021/12/06 13:02:17;;;;;;;43.20;25.17;;;;;;;;;;5050499;28;20491;-85
2021/12/06 13:04:58;;;;;;;49.55;27.75;;;;;;;;;;5077556;27;20047;-85
2021/12/06 13:07:31;;;;;;;46.88;26.13;;;;;;;;;;5071775;28;20923;-85
2021/12/06 13:09:58;;;;;;;44.88;24.75;;;;;;;;;;5053981;28;20268;-85
2021/12/06 13:12:24;;;;;;;47.35;26.83;;;;;;;;;;5058316;27;20178;-84
2021/12/06 13:14:56;;;;;;;51.10;27.45;;;;;;;;;;5057494;28;20046;-84
2021/12/06 13:17:28;;;;;;;51.67;28.63;;;;;;;;;;5055912;28;20112;-84
2021/12/06 13:20:09;;;;;;;47.72;26.98;;;;;;;;;;5076264;28;20146;-84
2021/12/06 13:22:47;;;;;;;45.42;26.15;;;;;;;;;;5064700;28;20092;-85
2021/12/06 13:25:14;;;;;;;51.30;29.73;;;;;;;;;;5091015;27;20093;-85
2021/12/06 13:27:43;;;;;;;54.45;30.85;;;;;;;;;;5077806;28;20076;-85
2021/12/06 13:30:09;;;;;;;;;;;;;;;;;;5071284;28;20040;-83
2021/12/06 13:32:44;;;;;;;56.05;31.25;;;;;;;;;;5039185;28;19928;-84
2021/12/06 13:35:22;;;;;;;63.85;33.78;;;;;;;;;;5071122;28;20459;-84
2021/12/06 13:38:28;;;;;;;71.57;37.00;;;;;;;;;;5039242;28;20060;-85
2021/12/06 13:40:57;;;;;;;65.75;37.70;;;;;;;;;;4976122;28;20397;-85
2021/12/06 13:43:29;;;;;;;67.95;39.22;;;;;;;;;;4958353;28;20049;-85
2021/12/06 13:46:00;;;;;;;68.70;38.08;;;;;;;;;;5037051;28;20127;-84
2021/12/06 13:48:33;;;;;;;71.88;40.88;;;;;;;;;;5021772;28;20467;-85
2021/12/06 13:50:59;;;;;;;64.85;38.65;;;;;;;;;;5025090;28;20121;-85
2021/12/06 13:53:27;;;;;;;68.57;38.55;;;;;;;;;;5060945;28;20048;-85
2021/12/06 13:55:53;;;;;;;68.45;39.20;;;;;;;;;;5047022;28;20090;-85
2021/12/06 13:58:19;;;;;;;66.00;37.88;;;;;;;;;;5023502;28;20055;-84
2021/12/06 14:00:46;;;;;;;63.58;37.25;;;;;;;;;;5062063;28;20044;-85
2021/12/06 14:03:14;;;;;;;58.95;35.75;;;;;;;;;;5040369;28;20032;-85
2021/12/06 14:05:44;;;;;;;57.63;33.60;;;;;;;;;;5029729;28;20404;-85
2021/12/06 14:08:14;;;;;;;54.75;34.65;;;;;;;;;;5023960;28;20047;-85
2021/12/06 14:10:40;;;;;;;61.80;35.63;;;;;;;;;;5047224;28;20077;-85
2021/12/06 14:13:09;;;;;;;63.05;36.00;;;;;;;;;;5024017;28;20044;-85
2021/12/06 14:15:46;;;;;;;55.65;32.97;;;;;;;;;;5047458;28;20454;-85
2021/12/06 14:18:14;;;;;;;55.50;32.80;;;;;;;;;;5058080;28;20150;-85
2021/12/06 14:20:51;;;;;;;60.20;34.65;;;;;;;;;;5028507;28;20052;-85
2021/12/06 14:23:18;;;;;;;57.45;32.63;;;;;;;;;;5041354;28;20048;-85
2021/12/06 14:25:52;;;;;;;57.95;34.13;;;;;;;;;;5041008;28;20422;-85
2021/12/06 14:28:19;;;;;;;53.67;31.95;;;;;;;;;;5028979;28;20140;-85
2021/12/06 14:30:46;;;;;;;56.00;31.98;;;;;;;;;;5051315;28;20066;-84
2021/12/06 14:33:12;;;;;;;53.15;31.75;;;;;;;;;;5062197;28;20052;-84
2021/12/06 14:35:38;;;;;;;54.80;32.40;;;;;;;;;;5079351;28;20112;-85
2021/12/06 14:38:05;;;;;;;55.25;32.28;;;;;;;;;;5039763;28;20048;-85